createdAt,value
2022-11-20T00:00:08.005Z,12.81
2022-11-20T00:02:54.140Z,12.79
2022-11-20T00:05:39.867Z,12.78
2022-11-20T00:08:25.543Z,12.82
2022-11-20T00:11:16.970Z,12.80
2022-11-20T00:14:03.628Z,12.78
2022-11-20T00:16:50.444Z,12.82
2022-11-20T00:19:36.464Z,12.89
2022-11-20T00:22:24.379Z,12.86
2022-11-20T00:25:10.416Z,12.95
2022-11-20T00:28:00.394Z,13.02
2022-11-20T00:30:46.522Z,13.06
2022-11-20T00:33:32.710Z,13.12
2022-11-20T00:36:20.852Z,13.18
2022-11-20T00:39:06.991Z,13.24
2022-11-20T00:41:53.343Z,13.32
2022-11-20T00:44:39.268Z,13.35
2022-11-20T00:47:25.337Z,13.40
2022-11-20T00:50:11.183Z,13.40
2022-11-20T00:52:56.927Z,13.48
2022-11-20T00:55:42.734Z,13.58
2022-11-20T00:58:33.922Z,13.56
2022-11-20T01:01:25.475Z,13.62
2022-11-20T01:04:11.406Z,13.66
2022-11-20T01:06:57.316Z,13.70
2022-11-20T01:09:43.100Z,13.73
2022-11-20T01:12:28.924Z,13.75
2022-11-20T01:15:14.708Z,13.78
2022-11-20T01:18:00.443Z,13.79
2022-11-20T01:20:46.461Z,13.83
2022-11-20T01:23:36.857Z,13.84
2022-11-20T01:26:28.709Z,13.85
2022-11-20T01:29:23.649Z,13.88
2022-11-20T01:32:09.933Z,13.89
2022-11-20T01:34:55.540Z,13.86
2022-11-20T01:37:41.533Z,13.88
2022-11-20T01:40:27.677Z,13.82
2022-11-20T01:43:23.850Z,13.89
2022-11-20T01:46:18.693Z,13.88
2022-11-20T01:49:23.747Z,13.86
2022-11-20T01:52:20.342Z,13.81
2022-11-20T01:55:10.132Z,13.74
2022-11-20T01:57:56.645Z,13.75
2022-11-20T02:00:42.472Z,13.73
2022-11-20T02:03:29.045Z,13.73
2022-11-20T02:06:23.814Z,13.69
2022-11-20T02:09:09.710Z,13.67
2022-11-20T02:11:56.196Z,13.65
2022-11-20T02:14:41.889Z,13.62
2022-11-20T02:17:28.149Z,13.59
2022-11-20T02:20:14.370Z,13.55
2022-11-20T02:23:06.440Z,13.48
2022-11-20T02:25:53.969Z,13.38
2022-11-20T02:28:40.119Z,13.37
2022-11-20T02:31:26.096Z,13.28
2022-11-20T02:34:12.399Z,13.29
2022-11-20T02:36:58.647Z,13.29
2022-11-20T02:39:46.021Z,13.28
2022-11-20T02:42:31.714Z,13.26
2022-11-20T02:45:17.395Z,13.22
2022-11-20T02:48:03.336Z,13.23
2022-11-20T02:50:49.439Z,13.23
2022-11-20T02:53:35.713Z,13.16
2022-11-20T02:56:21.583Z,13.21
2022-11-20T02:59:07.698Z,13.21
2022-11-20T03:01:53.273Z,13.17
2022-11-20T03:04:39.396Z,13.16
2022-11-20T03:07:25.903Z,13.15
2022-11-20T03:10:12.709Z,13.13
2022-11-20T03:12:58.833Z,13.13
2022-11-20T03:15:44.584Z,13.15
2022-11-20T03:18:30.334Z,13.18
2022-11-20T03:21:17.477Z,13.13
2022-11-20T03:24:04.235Z,13.15
2022-11-20T03:26:50.202Z,13.15
2022-11-20T03:29:39.063Z,13.16
2022-11-20T03:32:24.972Z,13.18
2022-11-20T03:35:11.017Z,13.21
2022-11-20T03:37:58.707Z,13.18
2022-11-20T03:40:44.506Z,13.22
2022-11-20T03:43:30.551Z,13.20
2022-11-20T03:46:17.192Z,13.22
2022-11-20T03:49:03.455Z,13.22
2022-11-20T03:51:49.299Z,13.17
2022-11-20T03:54:35.168Z,13.19
2022-11-20T03:57:20.857Z,13.21
2022-11-20T04:00:07.323Z,13.13
2022-11-20T04:02:53.398Z,13.13
2022-11-20T04:05:39.268Z,13.10
2022-11-20T04:08:25.088Z,13.12
2022-11-20T04:11:21.472Z,13.04
2022-11-20T04:14:14.119Z,12.98
2022-11-20T04:17:00.067Z,12.94
2022-11-20T04:19:45.719Z,12.97
2022-11-20T04:22:31.410Z,12.96
2022-11-20T04:25:17.134Z,12.97
2022-11-20T04:28:02.807Z,12.97
2022-11-20T04:30:48.589Z,12.96
2022-11-20T04:33:35.236Z,12.99
2022-11-20T04:36:23.059Z,13.02
2022-11-20T04:39:14.357Z,13.02
2022-11-20T04:42:19.819Z,13.02
2022-11-20T04:45:06.352Z,13.04
2022-11-20T04:47:52.089Z,13.03
2022-11-20T04:50:41.313Z,13.01
2022-11-20T04:53:27.634Z,13.01
2022-11-20T04:56:13.846Z,13.02
2022-11-20T04:59:03.195Z,12.92
2022-11-20T05:01:49.598Z,12.98
2022-11-20T05:04:35.342Z,12.99
2022-11-20T05:07:21.171Z,12.94
2022-11-20T05:10:07.597Z,12.96
2022-11-20T05:12:53.785Z,12.99
2022-11-20T05:15:39.863Z,13.00
2022-11-20T05:18:25.844Z,12.98
2022-11-20T05:21:12.851Z,13.01
2022-11-20T05:23:59.115Z,13.00
2022-11-20T05:26:45.547Z,12.95
2022-11-20T05:29:33.391Z,12.97
2022-11-20T05:32:26.540Z,12.91
2022-11-20T05:35:12.665Z,12.93
2022-11-20T05:37:58.334Z,12.88
2022-11-20T05:40:44.201Z,12.87
2022-11-20T05:43:33.206Z,12.85
2022-11-20T05:46:26.522Z,12.86
2022-11-20T05:49:15.632Z,12.85
2022-11-20T05:52:01.337Z,12.78
2022-11-20T05:54:47.052Z,12.88
2022-11-20T05:57:32.874Z,12.89
2022-11-20T06:00:18.849Z,12.91
2022-11-20T06:03:04.979Z,12.91
2022-11-20T06:05:50.685Z,12.88
2022-11-20T06:08:36.484Z,12.94
2022-11-20T06:11:22.961Z,12.93
2022-11-20T06:14:08.996Z,12.90
2022-11-20T06:16:54.736Z,12.93
2022-11-20T06:19:40.607Z,12.89
2022-11-20T06:22:26.498Z,12.87
2022-11-20T06:25:12.882Z,12.85
2022-11-20T06:27:58.662Z,12.86
2022-11-20T06:30:47.512Z,12.82
2022-11-20T06:33:33.703Z,12.86
2022-11-20T06:36:21.623Z,12.86
2022-11-20T06:39:08.679Z,12.85
2022-11-20T06:41:58.771Z,12.87
2022-11-20T06:44:45.460Z,12.91
2022-11-20T06:47:31.536Z,12.89
2022-11-20T06:50:17.585Z,12.93
2022-11-20T06:53:04.646Z,12.92
2022-11-20T06:55:51.360Z,12.93
2022-11-20T06:58:38.061Z,12.95
2022-11-20T07:01:24.077Z,12.95
2022-11-20T07:04:10.137Z,12.98
2022-11-20T07:06:55.857Z,12.99
2022-11-20T07:09:41.413Z,13.02
2022-11-20T07:12:27.378Z,13.01
2022-11-20T07:15:13.406Z,13.03
2022-11-20T07:18:03.608Z,12.99
2022-11-20T07:20:49.992Z,12.89
2022-11-20T07:23:37.083Z,12.99
2022-11-20T07:26:23.468Z,12.97
2022-11-20T07:29:10.420Z,12.94
2022-11-20T07:31:58.213Z,12.95
2022-11-20T07:34:45.308Z,12.98
2022-11-20T07:37:32.919Z,12.96
2022-11-20T07:40:22.131Z,12.99
2022-11-20T07:43:08.915Z,13.01
2022-11-20T07:45:59.889Z,13.08
2022-11-20T07:48:45.809Z,13.08
2022-11-20T07:51:31.649Z,13.12
2022-11-20T07:54:17.618Z,13.15
2022-11-20T07:57:03.847Z,13.19
2022-11-20T07:59:49.612Z,13.19
2022-11-20T08:02:41.264Z,13.21
2022-11-20T08:05:27.037Z,13.22
2022-11-20T08:08:12.998Z,13.18
2022-11-20T08:11:18.250Z,13.20
2022-11-20T08:14:13.145Z,13.26
2022-11-20T08:16:58.873Z,13.29
2022-11-20T08:19:44.651Z,13.27
2022-11-20T08:22:30.693Z,13.34
2022-11-20T08:25:17.192Z,13.36
2022-11-20T08:28:18.382Z,13.35
2022-11-20T08:31:06.126Z,13.38
2022-11-20T08:33:52.042Z,13.39
2022-11-20T08:36:38.293Z,13.45
2022-11-20T08:39:24.611Z,13.46
2022-11-20T08:42:10.694Z,13.43
2022-11-20T08:44:56.839Z,13.38
2022-11-20T08:47:43.508Z,13.38
2022-11-20T08:50:30.294Z,13.37
2022-11-20T08:53:16.344Z,13.32
2022-11-20T08:56:01.959Z,13.35
2022-11-20T08:59:17.901Z,13.38
2022-11-20T09:01:55.767Z,13.38
2022-11-20T09:04:41.960Z,13.38
2022-11-20T09:07:28.011Z,13.40
2022-11-20T09:10:29.226Z,13.38
2022-11-20T09:13:15.269Z,13.38
2022-11-20T09:16:04.134Z,13.38
2022-11-20T09:19:02.206Z,13.27
2022-11-20T09:21:59.918Z,13.25
2022-11-20T09:24:46.080Z,13.23
2022-11-20T09:27:31.851Z,13.23
2022-11-20T09:30:17.737Z,13.21
2022-11-20T09:33:05.813Z,13.24
2022-11-20T09:35:51.964Z,13.25
2022-11-20T09:38:37.775Z,13.21
2022-11-20T09:41:42.235Z,13.28
2022-11-20T09:44:57.508Z,13.26
2022-11-20T09:48:07.897Z,13.32
2022-11-20T09:51:29.602Z,13.31
2022-11-20T09:54:22.136Z,13.34
2022-11-20T09:57:17.174Z,13.34
2022-11-20T10:00:05.801Z,13.30
2022-11-20T10:03:04.043Z,13.29
2022-11-20T10:05:54.365Z,13.32
2022-11-20T10:08:48.286Z,13.34
2022-11-20T10:11:52.505Z,13.33
2022-11-20T10:14:56.960Z,13.32
2022-11-20T10:18:12.092Z,13.27
2022-11-20T10:21:23.474Z,13.26
2022-11-20T10:24:31.500Z,13.23
2022-11-20T10:27:40.573Z,13.23
2022-11-20T10:30:28.452Z,13.24
2022-11-20T10:33:18.713Z,13.22
2022-11-20T10:36:15.452Z,13.27
2022-11-20T10:39:18.199Z,13.24
2022-11-20T10:42:06.807Z,13.31
2022-11-20T10:45:06.042Z,13.32
2022-11-20T10:48:14.349Z,13.32
2022-11-20T10:51:06.359Z,13.32
2022-11-20T10:54:09.259Z,13.32
2022-11-20T10:57:11.267Z,13.33
2022-11-20T11:00:07.496Z,13.27
2022-11-20T11:02:54.634Z,13.35
2022-11-20T11:05:52.086Z,13.36
2022-11-20T11:08:40.242Z,13.38
2022-11-20T11:11:30.247Z,13.38
2022-11-20T11:14:17.375Z,13.41
2022-11-20T11:17:03.661Z,13.46
2022-11-20T11:20:25.750Z,13.47
2022-11-20T11:23:27.879Z,13.43
2022-11-20T11:26:24.277Z,13.51
2022-11-20T11:29:18.712Z,13.43
2022-11-20T11:32:17.125Z,13.52
2022-11-20T11:35:05.120Z,13.51
2022-11-20T11:37:52.166Z,13.51
2022-11-20T11:40:41.020Z,13.49
2022-11-20T11:43:48.573Z,13.53
2022-11-20T11:46:36.429Z,13.51
2022-11-20T11:49:23.213Z,13.50
2022-11-20T11:52:08.913Z,13.46
2022-11-20T11:54:57.087Z,13.43
2022-11-20T11:57:51.319Z,13.39
2022-11-20T12:00:38.724Z,13.34
2022-11-20T12:03:37.180Z,13.27
2022-11-20T12:06:24.012Z,13.20
2022-11-20T12:09:11.589Z,13.13
2022-11-20T12:12:10.226Z,13.07
2022-11-20T12:14:57.546Z,13.03
2022-11-20T12:17:45.853Z,13.02
2022-11-20T12:20:36.549Z,12.91
2022-11-20T12:23:49.468Z,12.92
2022-11-20T12:26:55.696Z,12.94
2022-11-20T12:30:10.166Z,12.92
2022-11-20T12:33:02.040Z,12.90
2022-11-20T12:36:09.902Z,12.85
2022-11-20T12:39:33.370Z,12.81
2022-11-20T12:42:43.519Z,12.76
2022-11-20T12:45:47.972Z,12.70
2022-11-20T12:48:50.184Z,12.71
2022-11-20T12:51:39.498Z,12.72
2022-11-20T12:54:48.152Z,12.71
2022-11-20T12:57:50.240Z,12.65
2022-11-20T13:00:37.512Z,12.68
2022-11-20T13:03:23.550Z,12.75
2022-11-20T13:06:18.646Z,12.74
2022-11-20T13:09:08.037Z,12.74
2022-11-20T13:12:05.582Z,12.80
2022-11-20T13:15:34.246Z,12.81
2022-11-20T13:18:20.424Z,12.81
2022-11-20T13:21:20.462Z,12.84
2022-11-20T13:24:25.343Z,12.82
2022-11-20T13:27:14.944Z,12.91
2022-11-20T13:30:02.561Z,12.92
2022-11-20T13:32:57.261Z,12.92
2022-11-20T13:35:43.872Z,12.91
2022-11-20T13:38:33.853Z,12.87
2022-11-20T13:41:42.387Z,12.91
2022-11-20T13:44:43.662Z,12.85
2022-11-20T13:47:30.743Z,12.87
2022-11-20T13:50:16.788Z,12.78
2022-11-20T13:53:27.927Z,12.86
2022-11-20T13:56:32.127Z,12.85
2022-11-20T13:59:43.084Z,12.83
2022-11-20T14:02:30.422Z,12.83
2022-11-20T14:05:21.850Z,12.81
2022-11-20T14:08:15.397Z,12.82
2022-11-20T14:11:23.746Z,12.81
2022-11-20T14:14:27.382Z,12.80
2022-11-20T14:17:24.203Z,12.86
2022-11-20T14:20:15.461Z,12.86
2022-11-20T14:23:01.601Z,12.88
2022-11-20T14:25:47.394Z,12.88
2022-11-20T14:28:33.531Z,12.91
2022-11-20T14:31:25.365Z,12.88
2022-11-20T14:34:24.683Z,12.91
2022-11-20T14:37:19.613Z,12.93
2022-11-20T14:40:26.741Z,12.98
2022-11-20T14:43:26.566Z,12.99
2022-11-20T14:46:13.074Z,12.97
2022-11-20T14:49:02.284Z,12.98
2022-11-20T14:51:48.740Z,12.91
2022-11-20T14:54:44.915Z,12.96
2022-11-20T14:57:35.915Z,12.95
2022-11-20T15:00:23.143Z,12.93
2022-11-20T15:03:19.103Z,12.91
2022-11-20T15:06:07.487Z,12.93
2022-11-20T15:08:54.232Z,12.92
2022-11-20T15:11:40.429Z,12.90
2022-11-20T15:14:27.777Z,12.93
2022-11-20T15:17:13.534Z,12.91
2022-11-20T15:20:01.111Z,12.85
2022-11-20T15:22:48.399Z,12.83
2022-11-20T15:25:34.563Z,12.80
2022-11-20T15:28:26.630Z,12.82
2022-11-20T15:31:17.596Z,12.80
2022-11-20T15:34:03.616Z,12.80
2022-11-20T15:36:49.446Z,12.79
2022-11-20T15:39:35.448Z,12.79
2022-11-20T15:42:21.436Z,12.77
2022-11-20T15:45:07.506Z,12.72
2022-11-20T15:47:53.297Z,12.74
2022-11-20T15:50:44.965Z,12.74
2022-11-20T15:53:30.790Z,12.73
2022-11-20T15:56:16.783Z,12.70
2022-11-20T15:59:02.524Z,12.70
2022-11-20T16:01:48.563Z,12.64
2022-11-20T16:04:34.466Z,12.71
2022-11-20T16:07:20.470Z,12.68
2022-11-20T16:10:06.508Z,12.68
2022-11-20T16:13:11.939Z,12.61
2022-11-20T16:15:59.232Z,12.66
2022-11-20T16:18:45.014Z,12.67
2022-11-20T16:21:32.508Z,12.67
2022-11-20T16:24:18.807Z,12.64
2022-11-20T16:27:04.530Z,12.59
2022-11-20T16:29:50.682Z,12.53
2022-11-20T16:32:36.353Z,12.55
2022-11-20T16:35:22.144Z,12.52
2022-11-20T16:38:08.097Z,12.53
2022-11-20T16:40:54.000Z,12.47
2022-11-20T16:43:45.214Z,12.51
2022-11-20T16:46:32.249Z,12.48
2022-11-20T16:49:18.641Z,12.52
2022-11-20T16:52:04.589Z,12.50
2022-11-20T16:54:50.629Z,12.45
2022-11-20T16:57:37.844Z,12.47
2022-11-20T17:00:23.624Z,12.40
2022-11-20T17:03:09.469Z,12.44
2022-11-20T17:05:55.236Z,12.42
2022-11-20T17:08:41.242Z,12.47
2022-11-20T17:11:27.716Z,12.46
2022-11-20T17:14:13.748Z,12.38
2022-11-20T17:16:59.776Z,12.34
2022-11-20T17:19:45.593Z,12.29
2022-11-20T17:22:31.819Z,12.29
2022-11-20T17:25:17.750Z,12.23
2022-11-20T17:28:04.033Z,12.14
2022-11-20T17:30:50.142Z,12.10
2022-11-20T17:33:37.282Z,12.13
2022-11-20T17:36:23.084Z,12.12
2022-11-20T17:39:08.910Z,12.11
2022-11-20T17:42:30.293Z,12.13
2022-11-20T17:45:16.393Z,12.15
2022-11-20T17:48:02.483Z,12.16
2022-11-20T17:50:48.466Z,12.16
2022-11-20T17:53:36.159Z,12.21
2022-11-20T17:56:40.624Z,12.18
2022-11-20T17:59:26.617Z,12.24
2022-11-20T18:02:12.586Z,12.24
2022-11-20T18:04:58.401Z,12.27
2022-11-20T18:07:43.995Z,12.30
2022-11-20T18:10:30.886Z,12.30
2022-11-20T18:13:16.526Z,12.27
2022-11-20T18:16:08.988Z,12.21
2022-11-20T18:18:59.063Z,12.26
2022-11-20T18:21:46.524Z,12.21
2022-11-20T18:24:32.798Z,12.17
2022-11-20T18:27:20.773Z,12.18
2022-11-20T18:30:07.405Z,12.14
2022-11-20T18:32:53.830Z,12.08
2022-11-20T18:35:43.004Z,12.08
2022-11-20T18:38:28.964Z,12.03
2022-11-20T18:41:35.951Z,12.05
2022-11-20T18:44:45.934Z,12.04
2022-11-20T18:47:37.762Z,12.00
2022-11-20T18:50:23.809Z,12.08
2022-11-20T18:53:09.962Z,12.04
2022-11-20T18:55:56.369Z,12.11
2022-11-20T18:58:42.421Z,12.08
2022-11-20T19:01:28.307Z,12.07
2022-11-20T19:04:16.013Z,12.15
2022-11-20T19:07:01.868Z,12.13
2022-11-20T19:09:52.718Z,12.13
2022-11-20T19:12:39.038Z,12.13
2022-11-20T19:15:25.154Z,12.14
2022-11-20T19:18:11.234Z,12.13
2022-11-20T19:20:57.948Z,12.08
2022-11-20T19:23:48.529Z,12.08
2022-11-20T19:26:38.298Z,12.09
2022-11-20T19:29:25.536Z,12.10
2022-11-20T19:32:12.313Z,12.11
2022-11-20T19:34:59.077Z,12.04
2022-11-20T19:37:45.923Z,12.04
2022-11-20T19:40:31.992Z,12.08
2022-11-20T19:43:18.777Z,12.11
2022-11-20T19:46:05.075Z,12.09
2022-11-20T19:48:51.776Z,12.13
2022-11-20T19:51:39.705Z,12.14
2022-11-20T19:54:26.040Z,12.11
2022-11-20T19:57:12.168Z,12.08
2022-11-20T19:59:58.825Z,12.07
2022-11-20T20:02:44.977Z,12.10
2022-11-20T20:05:31.106Z,12.11
2022-11-20T20:08:17.319Z,12.11
2022-11-20T20:11:18.821Z,12.10
2022-11-20T20:14:10.444Z,12.11
2022-11-20T20:16:56.652Z,12.08
2022-11-20T20:19:42.791Z,12.02
2022-11-20T20:22:30.591Z,12.10
2022-11-20T20:25:16.284Z,12.12
2022-11-20T20:28:02.362Z,12.15
2022-11-20T20:30:48.452Z,12.15
2022-11-20T20:33:36.636Z,12.16
2022-11-20T20:36:23.892Z,12.15
2022-11-20T20:39:10.940Z,12.11
2022-11-20T20:41:56.854Z,12.03
2022-11-20T20:45:02.327Z,12.10
2022-11-20T20:47:48.387Z,12.02
2022-11-20T20:50:34.415Z,11.99
2022-11-20T20:53:20.524Z,12.03
2022-11-20T20:56:07.072Z,12.08
2022-11-20T20:58:52.890Z,12.00
2022-11-20T21:01:39.094Z,12.08
2022-11-20T21:04:25.211Z,12.00
2022-11-20T21:07:13.585Z,11.99
2022-11-20T21:09:59.737Z,12.04
2022-11-20T21:12:45.736Z,12.05
2022-11-20T21:15:31.925Z,12.04
2022-11-20T21:18:19.749Z,12.01
2022-11-20T21:21:26.326Z,11.98
2022-11-20T21:24:12.422Z,11.94
2022-11-20T21:26:58.950Z,11.92
2022-11-20T21:29:44.955Z,11.86
2022-11-20T21:32:33.695Z,11.88
2022-11-20T21:35:19.800Z,11.87
2022-11-20T21:38:05.530Z,11.84
2022-11-20T21:40:51.382Z,11.79
2022-11-20T21:43:37.754Z,11.78
2022-11-20T21:46:23.731Z,11.72
2022-11-20T21:49:10.544Z,11.59
2022-11-20T21:51:56.493Z,11.59
2022-11-20T21:54:42.573Z,11.52
2022-11-20T21:57:28.311Z,11.45
2022-11-20T22:00:14.555Z,11.46
2022-11-20T22:03:00.391Z,11.46
2022-11-20T22:05:59.642Z,11.41
2022-11-20T22:08:45.923Z,11.43
2022-11-20T22:11:31.653Z,11.45
2022-11-20T22:14:24.090Z,11.45
2022-11-20T22:17:13.614Z,11.46
2022-11-20T22:19:59.428Z,11.45
2022-11-20T22:22:45.076Z,11.45
2022-11-20T22:25:32.007Z,11.44
2022-11-20T22:28:18.093Z,11.43
2022-11-20T22:31:06.116Z,11.38
2022-11-20T22:33:52.435Z,11.39
2022-11-20T22:36:38.906Z,11.42
2022-11-20T22:39:24.975Z,11.42
2022-11-20T22:42:10.958Z,11.35
2022-11-20T22:44:56.912Z,11.36
2022-11-20T22:47:42.722Z,11.27
2022-11-20T22:50:28.620Z,11.24
2022-11-20T22:53:14.625Z,11.24
2022-11-20T22:56:01.495Z,11.15
2022-11-20T22:58:52.004Z,11.10
2022-11-20T23:01:38.466Z,11.11
2022-11-20T23:04:24.355Z,11.08
2022-11-20T23:07:10.491Z,11.03
2022-11-20T23:09:56.218Z,11.06
2022-11-20T23:12:41.937Z,11.03
2022-11-20T23:15:27.704Z,11.00
2022-11-20T23:18:13.678Z,10.98
2022-11-20T23:21:12.960Z,11.00
2022-11-20T23:23:59.563Z,11.00
2022-11-20T23:26:47.951Z,10.97
2022-11-20T23:29:34.056Z,10.94
2022-11-20T23:32:19.803Z,10.94
2022-11-20T23:35:05.748Z,10.91
2022-11-20T23:37:51.919Z,10.90
2022-11-20T23:40:41.243Z,10.91
2022-11-20T23:43:28.142Z,10.90
2022-11-20T23:46:16.714Z,10.92
2022-11-20T23:49:04.040Z,10.91
2022-11-20T23:51:49.704Z,10.92
2022-11-20T23:54:35.441Z,10.91
2022-11-20T23:57:21.359Z,10.92
